createdAt,value
2022-12-16T00:01:24.555Z,95706.44
2022-12-16T00:03:54.785Z,95708.72
2022-12-16T00:06:23.899Z,95702.81
2022-12-16T00:08:50.481Z,95707.25
2022-12-16T00:11:21.025Z,95712.50
2022-12-16T00:13:47.903Z,95712.72
2022-12-16T00:16:18.710Z,95714.88
2022-12-16T00:18:45.831Z,95725.34
2022-12-16T00:21:12.733Z,95719.06
2022-12-16T00:23:41.687Z,95727.84
2022-12-16T00:26:11.122Z,95728.88
2022-12-16T00:28:38.681Z,95728.22
2022-12-16T00:31:05.600Z,95733.88
2022-12-16T00:33:33.621Z,95736.59
2022-12-16T00:36:00.362Z,95738.72
2022-12-16T00:38:27.114Z,95739.34
2022-12-16T00:40:53.804Z,95741.41
2022-12-16T00:43:20.540Z,95746.66
2022-12-16T00:45:47.881Z,95744.81
2022-12-16T00:48:17.811Z,95743.16
2022-12-16T00:50:49.411Z,95756.34
2022-12-16T00:53:21.199Z,95755.31
2022-12-16T00:55:48.021Z,95748.63
2022-12-16T00:58:14.561Z,95753.25
2022-12-16T01:00:43.324Z,95752.13
2022-12-16T01:03:16.725Z,95752.63
2022-12-16T01:05:46.017Z,95748.09
2022-12-16T01:08:12.785Z,95747.19
2022-12-16T01:10:41.976Z,95744.81
2022-12-16T01:13:08.593Z,95745.66
2022-12-16T01:15:37.634Z,95749.22
2022-12-16T01:18:04.725Z,95744.06
2022-12-16T01:20:33.073Z,95746.97
2022-12-16T01:22:59.555Z,95747.59
2022-12-16T01:25:26.574Z,95755.31
2022-12-16T01:27:53.058Z,95766.72
2022-12-16T01:30:20.317Z,95757.53
2022-12-16T01:32:46.791Z,95769.06
2022-12-16T01:35:43.743Z,95770.63
2022-12-16T01:38:02.462Z,95765.56
2022-12-16T01:40:29.761Z,95767.44
2022-12-16T01:42:56.254Z,95777.47
2022-12-16T01:45:31.389Z,95781.00
2022-12-16T01:48:03.483Z,95772.25
2022-12-16T01:50:33.022Z,95775.63
2022-12-16T01:53:03.268Z,95780.34
2022-12-16T01:55:42.193Z,95775.75
2022-12-16T01:58:17.392Z,95776.75
2022-12-16T02:00:43.870Z,95784.75
2022-12-16T02:03:11.071Z,95784.75
2022-12-16T02:05:42.192Z,95790.47
2022-12-16T02:08:17.054Z,95796.88
2022-12-16T02:10:43.507Z,95798.16
2022-12-16T02:13:33.527Z,95801.94
2022-12-16T02:16:10.781Z,95793.63
2022-12-16T02:19:01.450Z,95791.88
2022-12-16T02:21:34.675Z,95793.13
2022-12-16T02:24:45.565Z,95799.88
2022-12-16T02:27:50.229Z,95793.94
2022-12-16T02:30:44.939Z,95802.03
2022-12-16T02:33:14.696Z,95801.84
2022-12-16T02:36:07.995Z,95803.78
2022-12-16T02:38:51.119Z,95807.53
2022-12-16T02:41:27.525Z,95814.06
2022-12-16T02:44:03.344Z,95819.13
2022-12-16T02:46:34.079Z,95821.19
2022-12-16T02:49:26.534Z,95823.75
2022-12-16T02:51:54.694Z,95826.44
2022-12-16T02:54:23.004Z,95826.84
2022-12-16T02:57:20.525Z,95831.97
2022-12-16T03:00:07.383Z,95833.81
2022-12-16T03:02:53.194Z,95838.97
2022-12-16T03:05:29.235Z,95839.13
2022-12-16T03:07:59.551Z,95838.41
2022-12-16T03:10:31.990Z,95839.44
2022-12-16T03:13:01.687Z,95843.22
2022-12-16T03:15:32.247Z,95849.81
2022-12-16T03:18:00.957Z,95842.81
2022-12-16T03:20:49.369Z,95857.88
2022-12-16T03:23:22.917Z,95853.16
2022-12-16T03:25:51.041Z,95869.59
2022-12-16T03:28:20.506Z,95864.09
2022-12-16T03:30:55.678Z,95863.84
2022-12-16T03:33:31.292Z,95863.94
2022-12-16T03:36:04.156Z,95869.81
2022-12-16T03:38:33.772Z,95868.13
2022-12-16T03:41:01.399Z,95859.53
2022-12-16T03:43:28.138Z,95866.81
2022-12-16T03:46:01.151Z,95874.94
2022-12-16T03:48:27.682Z,95876.50
2022-12-16T03:50:54.185Z,95879.06
2022-12-16T03:53:27.033Z,95880.38
2022-12-16T03:55:57.247Z,95876.78
2022-12-16T03:58:23.723Z,95886.69
2022-12-16T04:00:50.689Z,95877.59
2022-12-16T04:03:17.307Z,95869.81
2022-12-16T04:05:45.444Z,95875.97
2022-12-16T04:08:11.858Z,95877.53
2022-12-16T04:10:57.077Z,95873.84
2022-12-16T04:13:41.954Z,95869.22
2022-12-16T04:16:32.895Z,95875.78
2022-12-16T04:19:18.269Z,95878.44
2022-12-16T04:22:03.650Z,95873.50
2022-12-16T04:24:30.903Z,95872.41
2022-12-16T04:27:16.206Z,95884.88
2022-12-16T04:30:02.587Z,95885.03
2022-12-16T04:32:53.704Z,95881.56
2022-12-16T04:35:39.067Z,95883.78
2022-12-16T04:38:24.372Z,95890.56
2022-12-16T04:41:09.276Z,95894.69
2022-12-16T04:43:54.643Z,95897.16
2022-12-16T04:46:39.507Z,95905.97
2022-12-16T04:49:24.780Z,95903.16
2022-12-16T04:52:09.643Z,95914.63
2022-12-16T04:54:54.643Z,95927.66
2022-12-16T04:57:39.419Z,95926.66
2022-12-16T05:00:25.336Z,95928.56
2022-12-16T05:03:10.221Z,95927.94
2022-12-16T05:05:55.456Z,95922.31
2022-12-16T05:08:40.356Z,95923.75
2022-12-16T05:11:25.676Z,95929.75
2022-12-16T05:14:10.592Z,95936.09
2022-12-16T05:16:57.815Z,95937.84
2022-12-16T05:19:42.667Z,95930.50
2022-12-16T05:22:27.465Z,95936.28
2022-12-16T05:25:12.357Z,95944.28
2022-12-16T05:27:57.835Z,95951.59
2022-12-16T05:30:42.706Z,95957.91
2022-12-16T05:33:27.792Z,95956.56
2022-12-16T05:36:12.531Z,95956.75
2022-12-16T05:38:57.478Z,95948.56
2022-12-16T05:41:42.917Z,95948.75
2022-12-16T05:44:28.421Z,95959.59
2022-12-16T05:47:13.210Z,95954.56
2022-12-16T05:50:02.504Z,95968.25
2022-12-16T05:52:47.469Z,95980.91
2022-12-16T05:55:34.254Z,95985.13
2022-12-16T05:58:19.739Z,95983.00
2022-12-16T06:01:05.334Z,95988.44
2022-12-16T06:03:50.493Z,95988.44
2022-12-16T06:06:35.693Z,95993.22
2022-12-16T06:09:20.513Z,96001.47
2022-12-16T06:12:05.356Z,95992.19
2022-12-16T06:14:50.711Z,96001.66
2022-12-16T06:17:35.546Z,96008.28
2022-12-16T06:20:20.548Z,96011.38
2022-12-16T06:23:12.733Z,96013.13
2022-12-16T06:25:59.133Z,96027.06
2022-12-16T06:28:46.167Z,96039.75
2022-12-16T06:31:31.425Z,96046.38
2022-12-16T06:34:16.510Z,96043.00
2022-12-16T06:37:02.496Z,96047.03
2022-12-16T06:39:52.576Z,96050.78
2022-12-16T06:42:37.997Z,96043.53
2022-12-16T06:45:23.444Z,96038.41
2022-12-16T06:48:08.502Z,96048.84
2022-12-16T06:50:55.736Z,96052.06
2022-12-16T06:53:44.326Z,96056.50
2022-12-16T06:56:29.783Z,96076.88
2022-12-16T06:59:14.695Z,96074.22
2022-12-16T07:01:59.677Z,96086.97
2022-12-16T07:04:44.944Z,96104.41
2022-12-16T07:07:30.395Z,96105.78
2022-12-16T07:10:15.230Z,96110.03
2022-12-16T07:13:00.099Z,96114.59
2022-12-16T07:15:44.940Z,96110.94
2022-12-16T07:18:29.778Z,96117.00
2022-12-16T07:21:14.623Z,96118.09
2022-12-16T07:23:59.435Z,96123.06
2022-12-16T07:26:44.307Z,96132.06
2022-12-16T07:29:29.220Z,96139.97
2022-12-16T07:32:14.208Z,96135.09
2022-12-16T07:35:01.862Z,96147.06
2022-12-16T07:37:50.636Z,96155.66
2022-12-16T07:40:35.493Z,96165.72
2022-12-16T07:43:20.354Z,96183.16
2022-12-16T07:46:05.341Z,96192.38
2022-12-16T07:48:50.453Z,96202.47
2022-12-16T07:51:35.608Z,96196.47
2022-12-16T07:54:20.459Z,96197.31
2022-12-16T07:57:05.662Z,96194.22
2022-12-16T07:59:50.596Z,96204.56
2022-12-16T08:02:35.538Z,96213.56
2022-12-16T08:05:20.984Z,96217.03
2022-12-16T08:08:05.646Z,96222.47
2022-12-16T08:10:50.506Z,96221.91
2022-12-16T08:13:36.367Z,96213.72
2022-12-16T08:16:21.747Z,96216.03
2022-12-16T08:19:10.966Z,96225.22
2022-12-16T08:21:57.093Z,96230.38
2022-12-16T08:24:43.834Z,96240.31
2022-12-16T08:27:31.973Z,96239.56
2022-12-16T08:30:16.939Z,96253.50
2022-12-16T08:33:08.371Z,96263.81
2022-12-16T08:36:00.087Z,96260.41
2022-12-16T08:38:44.979Z,96272.25
2022-12-16T08:41:29.814Z,96271.53
2022-12-16T08:44:14.498Z,96268.00
2022-12-16T08:46:59.501Z,96269.69
2022-12-16T08:49:44.228Z,96267.00
2022-12-16T08:52:29.017Z,96277.09
2022-12-16T08:55:13.828Z,96287.84
2022-12-16T08:57:58.535Z,96287.97
2022-12-16T09:00:43.451Z,96295.56
2022-12-16T09:03:28.443Z,96302.53
2022-12-16T09:06:17.188Z,96311.63
2022-12-16T09:09:02.486Z,96322.25
2022-12-16T09:11:47.414Z,96325.72
2022-12-16T09:14:34.782Z,96322.03
2022-12-16T09:17:19.619Z,96332.13
2022-12-16T09:20:04.781Z,96339.53
2022-12-16T09:22:49.728Z,96340.50
2022-12-16T09:25:35.141Z,96342.59
2022-12-16T09:28:20.595Z,96354.38
2022-12-16T09:31:05.443Z,96362.28
2022-12-16T09:33:53.076Z,96365.59
2022-12-16T09:36:38.038Z,96366.16
2022-12-16T09:39:22.841Z,96373.41
2022-12-16T09:42:33.012Z,96370.75
2022-12-16T09:45:40.305Z,96377.38
2022-12-16T09:48:33.293Z,96384.94
2022-12-16T09:51:23.040Z,96385.19
2022-12-16T09:54:12.065Z,96385.19
2022-12-16T09:56:56.836Z,96382.19
2022-12-16T09:59:48.172Z,96389.22
2022-12-16T10:02:36.142Z,96403.84
2022-12-16T10:05:22.202Z,96406.75
2022-12-16T10:08:19.234Z,96405.91
2022-12-16T10:11:19.289Z,96406.91
2022-12-16T10:14:15.940Z,96403.41
2022-12-16T10:17:38.822Z,96409.06
2022-12-16T10:20:24.403Z,96409.06
2022-12-16T10:23:16.908Z,96412.38
2022-12-16T10:26:07.844Z,96413.72
2022-12-16T10:29:14.963Z,96408.84
2022-12-16T10:32:00.551Z,96423.03
2022-12-16T10:34:51.367Z,96422.66
2022-12-16T10:37:47.657Z,96423.50
2022-12-16T10:40:36.531Z,96428.97
2022-12-16T10:43:39.978Z,96431.38
2022-12-16T10:46:33.898Z,96429.75
2022-12-16T10:49:19.155Z,96427.66
2022-12-16T10:52:09.183Z,96436.88
2022-12-16T10:55:13.194Z,96438.28
2022-12-16T10:58:39.456Z,96447.69
2022-12-16T11:01:40.647Z,96432.19
2022-12-16T11:04:50.513Z,96438.59
2022-12-16T11:08:01.500Z,96449.19
2022-12-16T11:10:58.630Z,96443.31
2022-12-16T11:13:54.680Z,96443.50
2022-12-16T11:16:46.044Z,96451.50
2022-12-16T11:19:42.020Z,96451.69
2022-12-16T11:22:41.731Z,96443.38
2022-12-16T11:25:38.355Z,96439.53
2022-12-16T11:28:35.577Z,96441.16
2022-12-16T11:31:31.682Z,96447.38
2022-12-16T11:34:18.312Z,96461.31
2022-12-16T11:37:05.579Z,96461.91
2022-12-16T11:39:51.584Z,96459.13
2022-12-16T11:42:44.216Z,96465.59
2022-12-16T11:45:39.228Z,96467.50
2022-12-16T11:48:57.751Z,96467.25
2022-12-16T11:51:45.850Z,96460.59
2022-12-16T11:54:43.892Z,96463.47
2022-12-16T11:57:38.179Z,96465.59
2022-12-16T12:00:34.800Z,96478.66
2022-12-16T12:03:25.769Z,96488.22
2022-12-16T12:06:33.061Z,96486.72
2022-12-16T12:09:25.405Z,96488.75
2022-12-16T12:12:23.077Z,96485.19
2022-12-16T12:15:52.909Z,96495.47
2022-12-16T12:19:42.200Z,96500.59
2022-12-16T12:22:39.464Z,96493.59
2022-12-16T12:25:35.998Z,96490.81
2022-12-16T12:28:39.176Z,96493.75
2022-12-16T12:31:41.685Z,96493.13
2022-12-16T12:34:59.208Z,96502.22
2022-12-16T12:38:02.330Z,96497.16
2022-12-16T12:41:22.281Z,96506.09
2022-12-16T12:44:49.102Z,96513.44
2022-12-16T12:47:36.335Z,96522.94
2022-12-16T12:50:24.279Z,96525.81
2022-12-16T12:53:20.263Z,96518.41
2022-12-16T12:56:22.671Z,96525.09
2022-12-16T12:59:11.381Z,96522.25
2022-12-16T13:02:01.494Z,96531.91
2022-12-16T13:04:48.822Z,96534.34
2022-12-16T13:07:34.325Z,96538.38
2022-12-16T13:10:44.253Z,96536.91
2022-12-16T13:13:36.440Z,96535.88
2022-12-16T13:16:23.711Z,96536.69
2022-12-16T13:19:47.366Z,96529.16
2022-12-16T13:23:05.099Z,96537.06
2022-12-16T13:25:56.077Z,96539.25
2022-12-16T13:28:50.118Z,96551.63
2022-12-16T13:31:36.046Z,96546.84
2022-12-16T13:34:25.740Z,96548.31
2022-12-16T13:37:15.669Z,96562.66
2022-12-16T13:40:33.072Z,96571.75
2022-12-16T13:43:23.465Z,96569.41
2022-12-16T13:46:18.119Z,96571.88
2022-12-16T13:49:03.307Z,96583.75
2022-12-16T13:51:57.361Z,96575.28
2022-12-16T13:54:55.390Z,96581.69
2022-12-16T13:57:47.446Z,96596.06
2022-12-16T14:00:43.662Z,96597.97
2022-12-16T14:04:01.057Z,96606.84
2022-12-16T14:06:48.865Z,96608.50
2022-12-16T14:09:55.654Z,96612.38
2022-12-16T14:12:56.680Z,96622.75
2022-12-16T14:15:51.445Z,96632.34
2022-12-16T14:18:50.048Z,96631.78
2022-12-16T14:21:41.733Z,96630.81
2022-12-16T14:24:39.088Z,96637.91
2022-12-16T14:30:43.514Z,96640.69
2022-12-16T14:33:42.573Z,96646.47
2022-12-16T14:36:59.397Z,96653.31
2022-12-16T14:39:50.489Z,96661.44
2022-12-16T14:42:41.096Z,96672.75
2022-12-16T14:45:38.470Z,96670.47
2022-12-16T14:48:59.003Z,96668.88
2022-12-16T14:51:51.328Z,96673.31
2022-12-16T14:54:37.936Z,96685.66
2022-12-16T14:57:23.961Z,96698.66
2022-12-16T15:00:39.952Z,96706.47
2022-12-16T15:04:07.961Z,96719.97
2022-12-16T15:06:59.308Z,96715.25
2022-12-16T15:10:00.439Z,96712.88
2022-12-16T15:12:50.120Z,96705.28
2022-12-16T15:15:46.514Z,96717.78
2022-12-16T15:18:41.757Z,96712.47
2022-12-16T15:21:27.223Z,96730.28
2022-12-16T15:24:12.761Z,96731.06
2022-12-16T15:26:58.052Z,96738.19
2022-12-16T15:29:58.032Z,96738.47
2022-12-16T15:32:43.163Z,96741.59
2022-12-16T15:35:29.984Z,96741.59
2022-12-16T15:38:15.355Z,96737.34
2022-12-16T15:41:00.976Z,96750.88
2022-12-16T15:43:56.103Z,96752.41
2022-12-16T15:46:44.413Z,96752.53
2022-12-16T15:49:40.525Z,96756.53
2022-12-16T15:52:53.150Z,96761.72
2022-12-16T15:55:49.336Z,96775.78
2022-12-16T15:58:55.113Z,96776.00
2022-12-16T16:02:01.201Z,96772.69
2022-12-16T16:04:49.556Z,96788.34
2022-12-16T16:07:43.356Z,96783.88
2022-12-16T16:10:41.170Z,96782.50
2022-12-16T16:13:28.089Z,96788.59
2022-12-16T16:16:14.491Z,96779.47
2022-12-16T16:19:00.840Z,96795.13
2022-12-16T16:21:49.958Z,96800.94
2022-12-16T16:24:35.417Z,96800.28
2022-12-16T16:27:22.828Z,96803.09
2022-12-16T16:30:07.791Z,96805.56
2022-12-16T16:32:53.109Z,96809.19
2022-12-16T16:35:37.965Z,96819.84
2022-12-16T16:38:23.120Z,96831.03
2022-12-16T16:41:08.215Z,96829.53
2022-12-16T16:43:53.590Z,96831.28
2022-12-16T16:46:38.918Z,96828.56
2022-12-16T16:49:28.547Z,96830.75
2022-12-16T16:52:13.696Z,96835.63
2022-12-16T16:54:58.822Z,96832.75
2022-12-16T16:57:46.786Z,96833.84
2022-12-16T17:00:32.550Z,96835.78
2022-12-16T17:03:18.189Z,96846.63
2022-12-16T17:06:03.710Z,96859.31
2022-12-16T17:08:48.952Z,96853.31
2022-12-16T17:11:38.122Z,96853.31
2022-12-16T17:14:23.132Z,96852.66
2022-12-16T17:17:08.607Z,96851.97
2022-12-16T17:19:54.340Z,96854.44
2022-12-16T17:22:41.594Z,96866.81
2022-12-16T17:25:27.096Z,96879.66
2022-12-16T17:28:12.130Z,96882.22
2022-12-16T17:30:57.708Z,96887.56
2022-12-16T17:33:45.767Z,96891.91
2022-12-16T17:36:32.789Z,96901.22
2022-12-16T17:39:18.345Z,96904.66
2022-12-16T17:42:04.487Z,96915.28
2022-12-16T17:44:50.224Z,96913.56
2022-12-16T17:47:35.863Z,96911.91
2022-12-16T17:50:22.605Z,96907.88
2022-12-16T17:53:11.968Z,96910.06
2022-12-16T17:55:57.209Z,96911.53
2022-12-16T17:58:49.566Z,96909.34
2022-12-16T18:01:37.978Z,96911.25
2022-12-16T18:04:23.888Z,96919.31
2022-12-16T18:07:09.183Z,96918.41
2022-12-16T18:09:54.353Z,96920.50
2022-12-16T18:12:42.234Z,96919.13
2022-12-16T18:15:27.886Z,96927.84
2022-12-16T18:18:12.906Z,96923.97
2022-12-16T18:20:57.998Z,96930.00
2022-12-16T18:23:43.217Z,96944.09
2022-12-16T18:26:30.616Z,96941.78
2022-12-16T18:29:17.960Z,96947.06
2022-12-16T18:32:03.284Z,96951.47
2022-12-16T18:34:48.406Z,96958.88
2022-12-16T18:37:33.615Z,96957.53
2022-12-16T18:40:18.649Z,96959.03
2022-12-16T18:43:04.007Z,96965.66
2022-12-16T18:45:49.441Z,96969.25
2022-12-16T18:48:34.619Z,96961.72
2022-12-16T18:51:20.127Z,96963.44
2022-12-16T18:54:08.695Z,96971.06
2022-12-16T18:56:53.832Z,96977.09
2022-12-16T18:59:39.316Z,96981.19
2022-12-16T19:02:35.704Z,96988.16
2022-12-16T19:05:21.110Z,96997.34
2022-12-16T19:08:11.115Z,96992.41
2022-12-16T19:10:59.183Z,96997.63
2022-12-16T19:13:44.362Z,97007.75
2022-12-16T19:16:29.719Z,97005.06
2022-12-16T19:19:19.842Z,97007.97
2022-12-16T19:22:08.145Z,97008.84
2022-12-16T19:24:56.149Z,97006.69
2022-12-16T19:27:42.007Z,97016.72
2022-12-16T19:30:27.963Z,97010.63
2022-12-16T19:33:13.229Z,97017.31
2022-12-16T19:35:58.384Z,97020.91
2022-12-16T19:38:43.706Z,97020.84
2022-12-16T19:41:36.305Z,97035.47
2022-12-16T19:44:22.958Z,97029.50
2022-12-16T19:47:09.231Z,97031.06
2022-12-16T19:49:56.194Z,97036.41
2022-12-16T19:52:41.664Z,97042.38
2022-12-16T19:55:29.351Z,97048.25
2022-12-16T19:58:14.976Z,97049.13
2022-12-16T20:01:00.439Z,97057.78
2022-12-16T20:03:46.011Z,97058.69
2022-12-16T20:06:31.768Z,97069.81
2022-12-16T20:09:17.252Z,97074.13
2022-12-16T20:12:02.904Z,97071.50
2022-12-16T20:14:48.244Z,97089.06
2022-12-16T20:17:33.278Z,97087.56
2022-12-16T20:20:18.044Z,97087.81
2022-12-16T20:23:03.503Z,97092.28
2022-12-16T20:26:09.531Z,97094.63
2022-12-16T20:28:54.457Z,97091.25
2022-12-16T20:31:44.362Z,97099.44
2022-12-16T20:34:31.967Z,97112.94
2022-12-16T20:37:17.143Z,97116.72
2022-12-16T20:40:03.618Z,97120.75
2022-12-16T20:42:49.264Z,97129.25
2022-12-16T20:45:36.666Z,97127.44
2022-12-16T20:48:22.603Z,97126.69
2022-12-16T20:54:29.153Z,97133.06
2022-12-16T20:57:14.353Z,97140.75
2022-12-16T20:59:59.832Z,97143.66
2022-12-16T21:02:44.955Z,97157.56
2022-12-16T21:05:30.189Z,97159.59
2022-12-16T21:08:14.898Z,97162.44
2022-12-16T21:10:59.816Z,97166.72
2022-12-16T21:13:45.644Z,97167.59
2022-12-16T21:16:31.055Z,97170.00
2022-12-16T21:19:21.241Z,97166.84
2022-12-16T21:22:06.488Z,97171.84
2022-12-16T21:24:51.856Z,97179.66
2022-12-16T21:27:37.235Z,97178.09
2022-12-16T21:30:22.522Z,97182.16
2022-12-16T21:33:09.139Z,97187.91
2022-12-16T21:35:56.077Z,97192.25
2022-12-16T21:38:41.572Z,97195.25
2022-12-16T21:41:26.720Z,97196.28
2022-12-16T21:44:11.661Z,97200.56
2022-12-16T21:46:57.102Z,97202.47
2022-12-16T21:49:42.419Z,97204.41
2022-12-16T21:52:27.761Z,97206.56
2022-12-16T21:55:12.637Z,97203.28
2022-12-16T21:57:57.819Z,97213.06
2022-12-16T22:00:42.737Z,97218.06
2022-12-16T22:03:28.197Z,97219.03
2022-12-16T22:06:17.228Z,97217.25
2022-12-16T22:09:02.654Z,97230.69
2022-12-16T22:11:47.691Z,97239.69
2022-12-16T22:14:32.532Z,97242.03
2022-12-16T22:17:17.623Z,97246.72
2022-12-16T22:20:02.642Z,97249.84
2022-12-16T22:22:47.509Z,97252.75
2022-12-16T22:25:32.917Z,97250.28
2022-12-16T22:28:18.013Z,97256.19
2022-12-16T22:31:02.861Z,97258.44
2022-12-16T22:33:53.096Z,97265.69
2022-12-16T22:36:41.473Z,97266.59
2022-12-16T22:39:26.980Z,97271.38
2022-12-16T22:42:12.410Z,97277.47
2022-12-16T22:44:57.650Z,97276.53
2022-12-16T22:47:45.294Z,97288.56
2022-12-16T22:50:30.600Z,97293.19
2022-12-16T22:53:15.562Z,97286.66
2022-12-16T22:56:02.239Z,97288.69
2022-12-16T22:58:49.950Z,97300.94
2022-12-16T23:01:34.906Z,97302.72
2022-12-16T23:04:20.188Z,97297.63
2022-12-16T23:07:05.346Z,97302.50
2022-12-16T23:09:50.519Z,97309.56
2022-12-16T23:12:35.883Z,97302.88
2022-12-16T23:15:21.364Z,97306.25
2022-12-16T23:18:06.539Z,97303.09
2022-12-16T23:20:51.456Z,97307.63
2022-12-16T23:23:37.768Z,97316.13
2022-12-16T23:26:25.385Z,97323.34
2022-12-16T23:29:13.734Z,97329.41
2022-12-16T23:31:58.642Z,97327.09
2022-12-16T23:34:46.076Z,97323.59
2022-12-16T23:37:32.395Z,97330.34
2022-12-16T23:40:17.555Z,97334.84
2022-12-16T23:43:03.451Z,97336.38
2022-12-16T23:45:48.388Z,97352.50
2022-12-16T23:48:35.607Z,97347.59
2022-12-16T23:51:31.349Z,97343.38
2022-12-16T23:54:16.835Z,97349.47
2022-12-16T23:57:01.879Z,97363.75
2022-12-16T23:59:47.061Z,97371.50
